createdAt,value
2022-09-20T00:00:11.709Z,102952.84
2022-09-20T00:02:37.989Z,102957.31
2022-09-20T00:05:04.581Z,102960.03
2022-09-20T00:07:31.074Z,102968.00
2022-09-20T00:09:57.946Z,102963.69
2022-09-20T00:12:24.282Z,102969.84
2022-09-20T00:14:50.598Z,102962.03
2022-09-20T00:17:16.903Z,102977.88
2022-09-20T00:19:43.226Z,102983.22
2022-09-20T00:22:09.513Z,102977.97
2022-09-20T00:24:36.692Z,102981.53
2022-09-20T00:27:03.758Z,102978.94
2022-09-20T00:29:30.051Z,102978.91
2022-09-20T00:31:56.369Z,102983.31
2022-09-20T00:34:41.554Z,102985.09
2022-09-20T00:37:07.913Z,102980.69
2022-09-20T00:39:34.206Z,102993.91
2022-09-20T00:42:00.527Z,102999.22
2022-09-20T00:44:45.416Z,102996.50
2022-09-20T00:47:14.005Z,102991.28
2022-09-20T00:49:40.871Z,102944.75
2022-09-20T00:52:07.389Z,102930.69
2022-09-20T00:54:33.848Z,102940.22
2022-09-20T00:57:00.261Z,102929.75
2022-09-20T00:59:32.117Z,102934.16
2022-09-20T01:02:05.428Z,102952.69
2022-09-20T01:04:34.679Z,102958.94
2022-09-20T01:07:02.849Z,102961.47
2022-09-20T01:09:29.311Z,102964.25
2022-09-20T01:11:57.003Z,102971.22
2022-09-20T01:14:25.292Z,102972.09
2022-09-20T01:16:57.517Z,102966.91
2022-09-20T01:19:42.557Z,102962.59
2022-09-20T01:22:21.182Z,102956.38
2022-09-20T01:25:04.898Z,102954.66
2022-09-20T01:27:51.119Z,102938.03
2022-09-20T01:30:20.525Z,102940.69
2022-09-20T01:33:09.524Z,102941.53
2022-09-20T01:35:36.622Z,102952.91
2022-09-20T01:38:06.602Z,102958.16
2022-09-20T01:40:36.132Z,102961.78
2022-09-20T01:43:31.845Z,102960.88
2022-09-20T01:46:00.380Z,102955.66
2022-09-20T01:48:37.904Z,102959.19
2022-09-20T01:51:23.038Z,102955.53
2022-09-20T01:54:12.253Z,102956.47
2022-09-20T01:56:50.878Z,102963.16
2022-09-20T01:59:36.001Z,102945.75
2022-09-20T02:02:05.443Z,102945.84
2022-09-20T02:04:45.165Z,102940.56
2022-09-20T02:07:17.937Z,102942.34
2022-09-20T02:09:53.602Z,102949.44
2022-09-20T02:12:46.470Z,102946.69
2022-09-20T02:15:12.745Z,102950.91
2022-09-20T02:17:39.036Z,102948.19
2022-09-20T02:20:05.420Z,102955.28
2022-09-20T02:22:41.201Z,102950.97
2022-09-20T02:25:26.313Z,102949.03
2022-09-20T02:28:11.382Z,102940.75
2022-09-20T02:31:00.774Z,102946.13
2022-09-20T02:33:42.372Z,102938.22
2022-09-20T02:36:27.945Z,102942.53
2022-09-20T02:39:13.206Z,102940.91
2022-09-20T02:41:55.451Z,102936.31
2022-09-20T02:44:29.188Z,102926.94
2022-09-20T02:47:14.028Z,102942.66
2022-09-20T02:50:02.074Z,102935.81
2022-09-20T02:52:35.843Z,102932.41
2022-09-20T02:55:18.082Z,102939.22
2022-09-20T02:58:01.728Z,102944.50
2022-09-20T03:00:44.288Z,102942.06
2022-09-20T03:03:21.967Z,102949.22
2022-09-20T03:05:58.309Z,102945.72
2022-09-20T03:08:24.609Z,102948.38
2022-09-20T03:11:03.480Z,102950.25
2022-09-20T03:13:42.204Z,102952.97
2022-09-20T03:16:14.708Z,102965.06
2022-09-20T03:18:48.965Z,102959.88
2022-09-20T03:21:33.978Z,102959.91
2022-09-20T03:24:08.885Z,102961.75
2022-09-20T03:26:51.749Z,102970.59
2022-09-20T03:29:21.078Z,102960.16
2022-09-20T03:32:10.742Z,102990.97
2022-09-20T03:34:47.493Z,103091.91
2022-09-20T03:37:22.065Z,103961.00
2022-09-20T03:40:03.948Z,103974.16
2022-09-20T03:42:30.595Z,104086.38
2022-09-20T03:45:15.849Z,104353.25
2022-09-20T03:48:00.580Z,104450.59
2022-09-20T03:50:36.108Z,104491.66
2022-09-20T03:53:20.658Z,104523.34
2022-09-20T03:55:46.976Z,104500.38
2022-09-20T03:58:32.103Z,104494.13
2022-09-20T04:01:18.712Z,104478.28
2022-09-20T04:03:51.189Z,104333.31
2022-09-20T04:06:17.454Z,104507.81
2022-09-20T04:09:02.880Z,104571.91
2022-09-20T04:11:32.561Z,104530.72
2022-09-20T04:14:11.641Z,104527.28
2022-09-20T04:16:46.188Z,104538.56
2022-09-20T04:19:17.847Z,104546.31
2022-09-20T04:21:48.444Z,104554.06
2022-09-20T04:24:17.516Z,104571.63
2022-09-20T04:26:47.259Z,104615.59
2022-09-20T04:29:36.346Z,104575.25
2022-09-20T04:32:11.860Z,104559.38
2022-09-20T04:35:07.173Z,104558.53
2022-09-20T04:37:36.013Z,104569.66
2022-09-20T04:40:25.899Z,104532.88
2022-09-20T04:42:55.579Z,104498.56
2022-09-20T04:45:38.076Z,104534.59
2022-09-20T04:48:36.390Z,104424.03
2022-09-20T04:51:18.054Z,104576.63
2022-09-20T04:53:57.905Z,104666.84
2022-09-20T04:56:43.033Z,104651.03
2022-09-20T04:59:10.272Z,104703.56
2022-09-20T05:01:55.601Z,104656.94
2022-09-20T05:04:31.572Z,104571.88
2022-09-20T05:07:01.007Z,104539.34
2022-09-20T05:09:30.386Z,104572.75
2022-09-20T05:12:15.468Z,104662.06
2022-09-20T05:15:00.643Z,104507.94
2022-09-20T05:17:30.942Z,104655.28
2022-09-20T05:20:06.325Z,104923.66
2022-09-20T05:22:53.270Z,105224.41
2022-09-20T05:25:19.549Z,105364.06
2022-09-20T05:28:04.643Z,104506.38
2022-09-20T05:30:38.368Z,105627.97
2022-09-20T05:33:24.637Z,105590.13
2022-09-20T05:36:00.254Z,105538.84
2022-09-20T05:38:32.134Z,105410.69
2022-09-20T05:41:18.707Z,105380.75
2022-09-20T05:43:54.358Z,105341.13
2022-09-20T05:46:26.816Z,105340.13
2022-09-20T05:48:56.353Z,105322.88
2022-09-20T05:51:22.669Z,105333.78
2022-09-20T05:54:07.796Z,105317.25
2022-09-20T05:56:43.170Z,105336.81
2022-09-20T05:59:24.292Z,105345.69
2022-09-20T06:02:09.624Z,105331.78
2022-09-20T06:04:48.105Z,105317.94
2022-09-20T06:07:29.673Z,105361.00
2022-09-20T06:09:59.189Z,105351.09
2022-09-20T06:12:44.304Z,105436.16
2022-09-20T06:15:29.098Z,105396.47
2022-09-20T06:18:04.352Z,105446.34
2022-09-20T06:20:39.180Z,105059.50
2022-09-20T06:23:06.027Z,105438.91
2022-09-20T06:25:39.257Z,105398.72
2022-09-20T06:28:08.173Z,105360.56
2022-09-20T06:30:36.098Z,105467.00
2022-09-20T06:33:05.524Z,105392.25
2022-09-20T06:35:58.861Z,105385.19
2022-09-20T06:38:47.434Z,105367.59
2022-09-20T06:41:29.885Z,104924.72
2022-09-20T06:44:00.415Z,104936.25
2022-09-20T06:46:36.502Z,104930.25
2022-09-20T06:49:03.415Z,104938.44
2022-09-20T06:51:35.173Z,104930.50
2022-09-20T06:54:01.597Z,104947.41
2022-09-20T06:56:30.285Z,104926.50
2022-09-20T06:58:56.956Z,104932.19
2022-09-20T07:01:30.043Z,104941.72
2022-09-20T07:03:56.830Z,104974.91
2022-09-20T07:06:23.158Z,104952.88
2022-09-20T07:08:49.478Z,104974.34
2022-09-20T07:11:17.100Z,104967.97
2022-09-20T07:13:44.150Z,104997.13
2022-09-20T07:16:12.757Z,104963.72
2022-09-20T07:18:40.722Z,104879.78
2022-09-20T07:21:08.735Z,104855.06
2022-09-20T07:23:35.087Z,104869.28
2022-09-20T07:26:01.615Z,104887.09
2022-09-20T07:28:28.801Z,104892.38
2022-09-20T07:30:55.168Z,104869.53
2022-09-20T07:33:22.038Z,104779.47
2022-09-20T07:35:48.883Z,104694.66
2022-09-20T07:38:16.968Z,104581.41
2022-09-20T07:40:43.670Z,104507.09
2022-09-20T07:43:10.007Z,104454.91
2022-09-20T07:45:39.089Z,104369.00
2022-09-20T07:48:07.251Z,104285.75
2022-09-20T07:50:33.847Z,104215.03
2022-09-20T07:53:00.736Z,104141.63
2022-09-20T07:55:27.429Z,104093.44
2022-09-20T07:57:55.143Z,104019.28
2022-09-20T08:00:21.605Z,103978.53
2022-09-20T08:02:47.945Z,103934.81
2022-09-20T08:05:14.385Z,103832.03
2022-09-20T08:07:40.790Z,103794.88
2022-09-20T08:10:07.539Z,103772.59
2022-09-20T08:15:20.647Z,103736.47
2022-09-20T08:17:47.448Z,103700.28
2022-09-20T08:20:13.975Z,103675.75
2022-09-20T08:22:42.934Z,103645.72
2022-09-20T08:25:09.453Z,103610.44
2022-09-20T08:27:36.146Z,103585.53
2022-09-20T08:30:02.539Z,103560.28
2022-09-20T08:32:28.876Z,103537.72
2022-09-20T08:34:55.224Z,103509.28
2022-09-20T08:37:21.618Z,103477.31
2022-09-20T08:39:57.969Z,103432.34
2022-09-20T08:42:33.926Z,103371.75
2022-09-20T08:45:03.388Z,103311.41
2022-09-20T08:47:31.545Z,103252.34
2022-09-20T08:49:59.204Z,103201.16
2022-09-20T08:52:35.870Z,103145.97
2022-09-20T08:55:07.522Z,103093.53
2022-09-20T08:57:34.977Z,103038.66
2022-09-20T09:00:01.756Z,102993.19
2022-09-20T09:02:30.951Z,102909.50
2022-09-20T09:04:57.610Z,102850.88
2022-09-20T09:07:25.072Z,102777.25
2022-09-20T09:09:52.788Z,102726.91
2022-09-20T09:12:22.718Z,102691.16
2022-09-20T09:14:51.049Z,102656.31
2022-09-20T09:17:27.435Z,102632.63
2022-09-20T09:19:54.083Z,102564.66
2022-09-20T09:22:23.531Z,102551.06
2022-09-20T09:25:10.534Z,102525.75
2022-09-20T09:27:49.541Z,102489.19
2022-09-20T09:30:20.482Z,102466.47
2022-09-20T09:32:46.794Z,102441.91
2022-09-20T09:35:29.461Z,102435.69
2022-09-20T09:37:57.819Z,102416.50
2022-09-20T09:40:24.683Z,102401.75
2022-09-20T09:42:55.709Z,102377.38
2022-09-20T09:45:38.703Z,102360.59
2022-09-20T09:48:25.510Z,102343.66
2022-09-20T09:51:07.829Z,102333.56
2022-09-20T09:53:35.737Z,102333.06
2022-09-20T09:56:14.188Z,102333.13
2022-09-20T09:58:54.846Z,102312.81
2022-09-20T10:01:40.225Z,102317.25
2022-09-20T10:04:12.903Z,102308.06
2022-09-20T10:06:49.308Z,102303.41
2022-09-20T10:09:24.090Z,102296.53
2022-09-20T10:12:12.198Z,102284.28
2022-09-20T10:14:41.494Z,102299.16
2022-09-20T10:17:26.563Z,102293.22
2022-09-20T10:19:56.075Z,102282.78
2022-09-20T10:22:41.682Z,102284.81
2022-09-20T10:25:10.247Z,102276.59
2022-09-20T10:27:49.181Z,102268.47
2022-09-20T10:30:20.722Z,102258.63
2022-09-20T10:32:55.079Z,102258.84
2022-09-20T10:35:46.300Z,102234.97
2022-09-20T10:38:14.586Z,102238.09
2022-09-20T10:40:59.569Z,102227.03
2022-09-20T10:43:44.369Z,102217.09
2022-09-20T10:46:31.972Z,102198.13
2022-09-20T10:49:16.630Z,102178.75
2022-09-20T10:51:53.121Z,102167.53
2022-09-20T10:54:26.724Z,102136.94
2022-09-20T10:56:58.046Z,102239.50
2022-09-20T10:59:31.382Z,102328.47
2022-09-20T11:02:01.381Z,102480.63
2022-09-20T11:04:46.186Z,102179.16
2022-09-20T11:07:32.625Z,102159.06
2022-09-20T11:10:02.656Z,102124.63
2022-09-20T11:12:34.403Z,102110.69
2022-09-20T11:15:05.737Z,102126.03
2022-09-20T11:17:38.790Z,102106.44
2022-09-20T11:20:07.719Z,102070.59
2022-09-20T11:22:41.444Z,102033.03
2022-09-20T11:25:20.052Z,101994.81
2022-09-20T11:27:51.737Z,102027.38
2022-09-20T11:30:19.913Z,101937.50
2022-09-20T11:32:53.074Z,101982.75
2022-09-20T11:35:48.938Z,101955.75
2022-09-20T11:38:18.050Z,101957.88
2022-09-20T11:40:50.291Z,102003.44
2022-09-20T11:43:18.396Z,101968.13
2022-09-20T11:45:47.726Z,101886.03
2022-09-20T11:48:23.447Z,101793.06
2022-09-20T11:51:08.789Z,101747.06
2022-09-20T11:53:41.206Z,101730.56
2022-09-20T11:56:20.119Z,101693.69
2022-09-20T11:58:50.624Z,101667.91
2022-09-20T12:01:28.322Z,101650.41
2022-09-20T12:04:14.566Z,101814.84
2022-09-20T12:06:43.956Z,101746.88
2022-09-20T12:09:24.253Z,101629.03
2022-09-20T12:11:52.245Z,101676.22
2022-09-20T12:14:19.910Z,101706.22
2022-09-20T12:16:47.713Z,101820.91
2022-09-20T12:19:15.071Z,101729.44
2022-09-20T12:21:59.934Z,101643.09
2022-09-20T12:24:29.187Z,101710.91
2022-09-20T12:27:00.255Z,101627.81
2022-09-20T12:29:33.951Z,101527.25
2022-09-20T12:32:01.514Z,101517.16
2022-09-20T12:34:33.629Z,101694.00
2022-09-20T12:36:59.955Z,101667.78
2022-09-20T12:39:34.246Z,101667.03
2022-09-20T12:42:02.165Z,101548.91
2022-09-20T12:44:41.946Z,101674.28
2022-09-20T12:47:11.308Z,101550.97
2022-09-20T12:50:00.760Z,101733.34
2022-09-20T12:52:50.319Z,101694.91
2022-09-20T12:55:30.166Z,101538.06
2022-09-20T12:58:15.024Z,101366.59
2022-09-20T13:00:47.253Z,101388.59
2022-09-20T13:03:31.817Z,101492.75
2022-09-20T13:06:04.800Z,101583.72
2022-09-20T13:08:32.662Z,101498.06
2022-09-20T13:11:12.465Z,101346.69
2022-09-20T13:13:58.086Z,101444.56
2022-09-20T13:16:34.213Z,101484.56
2022-09-20T13:19:05.483Z,101383.63
2022-09-20T13:21:34.293Z,101442.00
2022-09-20T13:24:02.220Z,101499.69
2022-09-20T13:26:30.062Z,101418.19
2022-09-20T13:28:59.040Z,101306.13
2022-09-20T13:31:26.701Z,101202.28
2022-09-20T13:33:53.495Z,101171.66
2022-09-20T13:36:24.265Z,101175.09
2022-09-20T13:38:51.022Z,101071.56
2022-09-20T13:41:17.411Z,101425.09
2022-09-20T13:43:46.359Z,101498.56
2022-09-20T13:46:17.387Z,101406.06
2022-09-20T13:48:47.206Z,101377.03
2022-09-20T13:51:18.238Z,101222.72
2022-09-20T13:53:44.917Z,101181.44
2022-09-20T13:56:22.825Z,101073.75
2022-09-20T13:58:50.319Z,100865.88
2022-09-20T14:01:22.367Z,101138.50
2022-09-20T14:03:48.913Z,101128.59
2022-09-20T14:06:16.047Z,101052.22
2022-09-20T14:08:44.322Z,101061.84
2022-09-20T14:11:10.623Z,101057.94
2022-09-20T14:13:38.906Z,100978.72
2022-09-20T14:16:06.294Z,100998.44
2022-09-20T14:18:33.153Z,101042.88
2022-09-20T14:21:00.135Z,100964.84
2022-09-20T14:23:27.699Z,101029.13
2022-09-20T14:26:22.261Z,101023.66
2022-09-20T14:28:48.607Z,101271.59
2022-09-20T14:31:21.324Z,101528.09
2022-09-20T14:33:54.893Z,101668.81
2022-09-20T14:36:23.757Z,101699.63
2022-09-20T14:38:51.862Z,101762.38
2022-09-20T14:41:33.084Z,101699.97
2022-09-20T14:44:00.665Z,101387.09
2022-09-20T14:46:33.750Z,101374.41
2022-09-20T14:49:19.494Z,101312.41
2022-09-20T14:51:46.024Z,101169.13
2022-09-20T14:54:12.325Z,101122.91
2022-09-20T14:56:49.299Z,101255.53
2022-09-20T14:59:21.056Z,101560.59
2022-09-20T15:01:56.529Z,101529.44
2022-09-20T15:04:23.436Z,101457.16
2022-09-20T15:06:50.108Z,101548.34
2022-09-20T15:09:18.280Z,101747.88
2022-09-20T15:11:44.827Z,101900.88
2022-09-20T15:14:12.398Z,102061.47
2022-09-20T15:16:38.810Z,102095.94
2022-09-20T15:19:07.917Z,102092.47
2022-09-20T15:21:34.292Z,102151.13
2022-09-20T15:24:00.713Z,102155.16
2022-09-20T15:26:27.009Z,102112.59
2022-09-20T15:28:53.352Z,101952.22
2022-09-20T15:31:20.114Z,101844.34
2022-09-20T15:33:46.546Z,101775.03
2022-09-20T15:36:12.850Z,101789.72
2022-09-20T15:38:39.438Z,101718.59
2022-09-20T15:41:05.897Z,101605.75
2022-09-20T15:43:32.352Z,101447.00
2022-09-20T15:46:17.292Z,101340.00
2022-09-20T15:48:43.655Z,101426.72
2022-09-20T15:51:11.293Z,101500.16
2022-09-20T15:53:43.451Z,101465.53
2022-09-20T15:56:15.829Z,101441.56
2022-09-20T15:58:47.217Z,101447.50
2022-09-20T16:01:16.488Z,101442.03
2022-09-20T16:03:43.889Z,101482.28
2022-09-20T16:06:10.730Z,101616.06
2022-09-20T16:08:38.575Z,101790.97
2022-09-20T16:11:06.069Z,101787.63
2022-09-20T16:13:32.596Z,101699.53
2022-09-20T16:16:00.200Z,101613.81
2022-09-20T16:18:45.900Z,101588.03
2022-09-20T16:21:12.958Z,101694.88
2022-09-20T16:23:40.156Z,101915.06
2022-09-20T16:26:07.166Z,101900.97
2022-09-20T16:28:33.558Z,101852.00
2022-09-20T16:31:00.149Z,101708.88
2022-09-20T16:33:26.550Z,101798.63
2022-09-20T16:35:52.857Z,101766.38
2022-09-20T16:38:19.180Z,101717.38
2022-09-20T16:40:48.329Z,101796.56
2022-09-20T16:43:25.744Z,101842.13
2022-09-20T16:45:59.412Z,101959.22
2022-09-20T16:48:31.181Z,102029.97
2022-09-20T16:50:59.072Z,102082.75
2022-09-20T16:53:26.129Z,102113.84
2022-09-20T16:55:55.003Z,102203.88
2022-09-20T16:58:28.381Z,102312.41
2022-09-20T17:00:54.988Z,102398.53
2022-09-20T17:03:23.150Z,102432.69
2022-09-20T17:05:50.797Z,102426.38
2022-09-20T17:08:17.142Z,102414.09
2022-09-20T17:10:45.219Z,102391.19
2022-09-20T17:13:12.543Z,102386.69
2022-09-20T17:15:39.818Z,102390.28
2022-09-20T17:18:07.296Z,102393.59
2022-09-20T17:20:33.913Z,102394.84
2022-09-20T17:23:00.209Z,102393.19
2022-09-20T17:25:27.374Z,102403.50
2022-09-20T17:27:53.712Z,102423.91
2022-09-20T17:30:20.287Z,102434.28
2022-09-20T17:32:50.363Z,102434.56
2022-09-20T17:35:18.117Z,102429.41
2022-09-20T17:37:44.426Z,102435.75
2022-09-20T17:40:10.837Z,102475.66
2022-09-20T17:42:39.081Z,102520.59
2022-09-20T17:45:05.731Z,102567.34
2022-09-20T17:47:32.036Z,102597.38
2022-09-20T17:49:58.367Z,102602.34
2022-09-20T17:52:24.708Z,102582.63
2022-09-20T17:54:51.022Z,102552.22
2022-09-20T17:57:17.342Z,102535.09
2022-09-20T17:59:43.926Z,102534.75
2022-09-20T18:02:10.488Z,102523.28
2022-09-20T18:04:36.875Z,102493.88
2022-09-20T18:07:04.069Z,102496.78
2022-09-20T18:09:30.377Z,102470.59
2022-09-20T18:11:56.772Z,102474.69
2022-09-20T18:14:24.678Z,102491.50
2022-09-20T18:16:52.003Z,102509.44
2022-09-20T18:19:18.481Z,102534.38
2022-09-20T18:21:44.880Z,102542.75
2022-09-20T18:24:11.554Z,102563.69
2022-09-20T18:26:38.902Z,102589.41
2022-09-20T18:29:17.668Z,102606.38
2022-09-20T18:31:52.084Z,102643.56
2022-09-20T18:34:19.862Z,102667.53
2022-09-20T18:36:51.516Z,102679.19
2022-09-20T18:39:19.240Z,102719.03
2022-09-20T18:41:45.724Z,102742.94
2022-09-20T18:44:14.994Z,102775.78
2022-09-20T18:46:41.653Z,102804.34
2022-09-20T18:49:09.281Z,102832.69
2022-09-20T18:51:39.704Z,102856.63
2022-09-20T18:54:08.915Z,102874.56
2022-09-20T18:56:35.948Z,102868.78
2022-09-20T18:59:04.178Z,102891.78
2022-09-20T19:01:49.296Z,102906.09
2022-09-20T19:04:24.797Z,102930.16
2022-09-20T19:07:10.102Z,102961.25
2022-09-20T19:09:40.246Z,102989.47
2022-09-20T19:12:19.356Z,103039.81
2022-09-20T19:14:45.658Z,103069.13
2022-09-20T19:17:16.707Z,103098.31
2022-09-20T19:19:45.923Z,103116.91
2022-09-20T19:22:21.879Z,103144.09
2022-09-20T19:25:15.200Z,103163.47
2022-09-20T19:27:41.795Z,103183.97
2022-09-20T19:30:12.368Z,103197.41
2022-09-20T19:32:38.876Z,103215.03
2022-09-20T19:35:05.585Z,103232.66
2022-09-20T19:37:53.425Z,103251.19
2022-09-20T19:40:32.821Z,103278.53
2022-09-20T19:43:15.637Z,103298.00
2022-09-20T19:45:55.661Z,103321.91
2022-09-20T19:48:30.540Z,103333.44
2022-09-20T19:50:57.338Z,103363.50
2022-09-20T19:53:27.543Z,103539.91
2022-09-20T19:55:56.892Z,103670.44
2022-09-20T19:58:23.473Z,103689.88
2022-09-20T20:00:49.989Z,103711.91
2022-09-20T20:03:16.770Z,103726.94
2022-09-20T20:05:48.754Z,103770.09
2022-09-20T20:08:21.207Z,103793.91
2022-09-20T20:11:06.286Z,103813.31
2022-09-20T20:13:55.496Z,103827.41
2022-09-20T20:16:25.322Z,103845.94
2022-09-20T20:19:11.962Z,103863.56
2022-09-20T20:21:46.254Z,103877.69
2022-09-20T20:24:20.767Z,103878.56
2022-09-20T20:26:47.190Z,103887.38
2022-09-20T20:29:13.857Z,103902.38
2022-09-20T20:31:40.681Z,103910.28
2022-09-20T20:34:08.800Z,103926.16
2022-09-20T20:36:35.361Z,103940.25
2022-09-20T20:39:02.781Z,103957.84
2022-09-20T20:41:31.864Z,103964.00
2022-09-20T20:43:58.335Z,103980.75
2022-09-20T20:46:25.119Z,103989.53
2022-09-20T20:48:51.632Z,104008.88
2022-09-20T20:51:19.557Z,104035.34
2022-09-20T20:53:48.092Z,104052.94
2022-09-20T20:56:16.073Z,104097.00
2022-09-20T20:58:43.064Z,104147.19
2022-09-20T21:01:17.159Z,104162.97
2022-09-20T21:03:46.313Z,104170.88
2022-09-20T21:06:13.255Z,104236.06
2022-09-20T21:08:40.763Z,104273.03
2022-09-20T21:11:08.673Z,104288.91
2022-09-20T21:13:35.362Z,104310.91
2022-09-20T21:16:02.908Z,104331.91
2022-09-20T21:18:29.252Z,104353.94
2022-09-20T21:20:55.550Z,104386.53
2022-09-20T21:23:21.906Z,104409.41
2022-09-20T21:25:49.077Z,104446.34
2022-09-20T21:28:15.385Z,104467.47
2022-09-20T21:30:41.742Z,104495.66
2022-09-20T21:33:08.072Z,104502.75
2022-09-20T21:35:34.369Z,104505.34
2022-09-20T21:38:00.969Z,104507.03
2022-09-20T21:40:27.310Z,104514.06
2022-09-20T21:42:54.991Z,104514.88
2022-09-20T21:45:23.833Z,104534.31
2022-09-20T21:47:50.215Z,104534.31
2022-09-20T21:50:16.614Z,104533.31
2022-09-20T21:52:46.197Z,104532.41
2022-09-20T21:55:12.500Z,104531.47
2022-09-20T21:57:38.800Z,104540.25
2022-09-20T22:00:06.911Z,104543.78
2022-09-20T22:02:35.132Z,104555.28
2022-09-20T22:05:02.730Z,104553.53
2022-09-20T22:07:29.122Z,104548.09
2022-09-20T22:09:55.415Z,104548.97
2022-09-20T22:12:24.090Z,104544.56
2022-09-20T22:14:50.572Z,104555.16
2022-09-20T22:17:16.875Z,104551.63
2022-09-20T22:19:43.572Z,104551.56
2022-09-20T22:22:09.909Z,104532.97
2022-09-20T22:24:36.272Z,104525.78
2022-09-20T22:27:02.584Z,104524.97
2022-09-20T22:29:29.078Z,104528.50
2022-09-20T22:31:55.433Z,104523.25
2022-09-20T22:34:22.554Z,104524.09
2022-09-20T22:36:49.372Z,104525.78
2022-09-20T22:39:16.012Z,104524.00
2022-09-20T22:41:42.624Z,104518.66
2022-09-20T22:44:09.284Z,104511.50
2022-09-20T22:46:35.809Z,104506.19
2022-09-20T22:49:04.334Z,104506.34
2022-09-20T22:51:31.391Z,104477.03
2022-09-20T22:53:57.809Z,104458.38
2022-09-20T22:56:25.765Z,104457.66
2022-09-20T22:58:54.066Z,104439.22
2022-09-20T23:01:24.060Z,104423.47
2022-09-20T23:03:56.045Z,104423.53
2022-09-20T23:06:27.368Z,104423.47
2022-09-20T23:08:55.868Z,104422.56
2022-09-20T23:11:22.255Z,104415.47
2022-09-20T23:13:52.824Z,104418.00
2022-09-20T23:16:21.178Z,104419.88
2022-09-20T23:18:48.082Z,104438.31
2022-09-20T23:21:14.917Z,104433.84
2022-09-20T23:23:44.611Z,104430.41
2022-09-20T23:26:16.068Z,104430.34
2022-09-20T23:28:43.882Z,104441.75
2022-09-20T23:31:14.224Z,104443.44
2022-09-20T23:33:44.726Z,104447.81
2022-09-20T23:36:13.224Z,104451.16
2022-09-20T23:38:39.518Z,104458.25
2022-09-20T23:41:06.809Z,104445.78
2022-09-20T23:43:33.733Z,104461.63
2022-09-20T23:46:00.537Z,104458.00
2022-09-20T23:48:26.997Z,104469.41
2022-09-20T23:50:53.622Z,104471.88
2022-09-20T23:53:19.938Z,104470.03
2022-09-20T23:55:46.386Z,104469.97
2022-09-20T23:58:12.766Z,104466.44
